createdAt,value
2017-10-04T03:32:37.982Z,26.23
2017-10-04T03:35:05.625Z,15.15
2017-10-04T03:37:34.012Z,18.10
2017-10-04T03:40:02.409Z,12.15
2017-10-04T03:42:29.981Z,17.25
2017-10-04T03:44:57.598Z,8.73
2017-10-04T03:47:26.079Z,15.77
2017-10-04T03:49:54.426Z,13.60
2017-10-04T03:52:22.002Z,19.33
2017-10-04T03:54:49.606Z,15.88
2017-10-04T03:57:17.179Z,25.10
2017-10-04T03:59:44.790Z,14.60
2017-10-04T04:02:13.133Z,13.00
2017-10-04T04:04:40.752Z,17.65
2017-10-04T04:07:08.385Z,23.35
2017-10-04T04:09:36.730Z,18.92
2017-10-04T04:12:04.342Z,15.70
2017-10-04T04:14:31.922Z,14.65
2017-10-04T04:16:59.519Z,20.85
2017-10-04T04:19:27.123Z,22.90
2017-10-04T04:21:54.702Z,15.93
2017-10-04T04:24:22.318Z,16.60
2017-10-04T04:26:50.663Z,16.98
2017-10-04T04:29:18.242Z,14.98
2017-10-04T04:31:45.913Z,19.92
2017-10-04T04:34:14.253Z,19.55
2017-10-04T04:36:41.829Z,15.48
2017-10-04T04:39:09.463Z,11.00
2017-10-04T04:41:37.037Z,18.90
2017-10-04T04:44:04.625Z,14.40
2017-10-04T04:46:33.201Z,13.27
2017-10-04T04:49:01.547Z,20.55
2017-10-04T04:51:29.126Z,16.42
2017-10-04T04:53:56.802Z,18.42
2017-10-04T04:56:25.142Z,13.45
2017-10-04T04:58:52.742Z,21.62
2017-10-04T05:01:21.131Z,15.50
2017-10-04T05:03:48.774Z,11.75
2017-10-04T05:06:17.117Z,14.43
2017-10-04T05:08:44.809Z,18.27
2017-10-04T05:11:13.149Z,19.30
2017-10-04T05:13:40.726Z,16.50
2017-10-04T05:16:08.329Z,13.73
2017-10-04T05:18:35.961Z,18.45
2017-10-04T05:21:03.542Z,15.70
2017-10-04T05:23:31.186Z,12.73
2017-10-04T05:25:59.525Z,12.77
2017-10-04T05:28:27.110Z,16.10
2017-10-04T05:30:55.597Z,10.27
2017-10-04T05:33:23.973Z,23.23
2017-10-04T05:35:52.322Z,21.05
2017-10-04T05:38:20.018Z,12.70
2017-10-04T05:40:48.390Z,13.45
2017-10-04T05:43:16.734Z,25.42
2017-10-04T05:45:44.362Z,19.50
2017-10-04T05:48:11.946Z,19.50
2017-10-04T05:50:39.541Z,19.25
2017-10-04T05:53:08.022Z,23.23
2017-10-04T05:55:36.361Z,28.80
2017-10-04T05:58:03.962Z,16.40
2017-10-04T06:00:32.362Z,24.17
2017-10-04T06:03:00.002Z,21.62
2017-10-04T06:05:28.352Z,25.08
2017-10-04T06:07:55.984Z,24.60
2017-10-04T06:10:23.565Z,27.67
2017-10-04T06:12:51.151Z,34.42
2017-10-04T06:15:19.534Z,28.45
2017-10-04T06:17:47.882Z,31.08
2017-10-04T06:20:16.278Z,32.22
2017-10-04T06:22:44.629Z,32.70
2017-10-04T06:25:12.217Z,26.42
2017-10-04T06:27:40.610Z,29.30
2017-10-04T06:30:08.258Z,26.77
2017-10-04T06:32:36.597Z,29.08
2017-10-04T06:35:04.197Z,36.92
2017-10-04T06:37:32.577Z,21.48
2017-10-04T06:40:01.049Z,23.70
2017-10-04T06:42:29.403Z,27.92
2017-10-04T06:44:56.981Z,22.58
2017-10-04T06:47:25.350Z,44.58
2017-10-04T06:49:52.934Z,26.45
2017-10-04T06:52:20.533Z,27.20
2017-10-04T06:54:48.237Z,30.88
2017-10-04T06:57:16.587Z,26.90
2017-10-04T06:59:44.170Z,22.67
2017-10-04T07:02:12.550Z,27.87
2017-10-04T07:04:40.920Z,29.12
2017-10-04T07:07:08.506Z,29.48
2017-10-04T07:09:36.114Z,34.95
2017-10-04T07:12:03.697Z,27.98
2017-10-04T07:14:31.278Z,26.20
2017-10-04T07:16:58.886Z,25.65
2017-10-04T07:19:26.473Z,39.13
2017-10-04T07:21:54.053Z,36.92
2017-10-04T07:24:22.448Z,16.42
2017-10-04T07:26:50.033Z,23.20
2017-10-04T07:29:17.613Z,21.92
2017-10-04T07:31:45.254Z,25.25
2017-10-04T07:34:12.837Z,25.33
2017-10-04T07:36:40.422Z,22.30
2017-10-04T07:39:08.806Z,26.60
2017-10-04T07:41:36.394Z,26.33
2017-10-04T07:44:04.030Z,22.83
2017-10-04T07:46:31.618Z,18.75
2017-10-04T07:48:59.202Z,15.38
2017-10-04T07:51:26.851Z,21.15
2017-10-04T07:53:54.434Z,21.15
2017-10-04T07:56:22.020Z,24.75
2017-10-04T07:58:49.634Z,16.80
2017-10-04T08:01:17.219Z,18.95
2017-10-04T08:03:45.561Z,17.92
2017-10-04T08:06:13.182Z,21.02
2017-10-04T08:08:40.758Z,17.70
2017-10-04T08:11:08.336Z,24.58
2017-10-04T08:13:35.937Z,19.87
2017-10-04T08:16:04.281Z,19.30
2017-10-04T08:18:31.866Z,17.48
2017-10-04T08:21:00.237Z,21.45
2017-10-04T08:23:27.817Z,16.75
2017-10-04T08:25:56.177Z,17.70
2017-10-04T08:28:24.558Z,12.95
2017-10-04T08:30:52.902Z,14.87
2017-10-04T08:33:20.629Z,17.17
2017-10-04T08:35:48.210Z,13.57
2017-10-04T08:38:15.785Z,14.75
2017-10-04T08:40:43.385Z,11.88
2017-10-04T08:43:11.735Z,11.52
2017-10-04T08:45:39.321Z,15.27
2017-10-04T08:48:18.562Z,22.55
2017-10-04T08:50:46.146Z,10.23
2017-10-04T08:53:13.729Z,14.48
2017-10-04T08:55:41.354Z,15.57
2017-10-04T08:58:08.934Z,18.92
2017-10-04T09:00:36.518Z,12.50
2017-10-04T09:03:04.150Z,15.88
2017-10-04T09:05:43.610Z,16.98
2017-10-04T09:08:11.222Z,22.23
2017-10-04T09:10:38.802Z,16.37
2017-10-04T09:13:06.459Z,15.77
2017-10-04T09:15:34.049Z,13.82
2017-10-04T09:18:01.638Z,13.30
2017-10-04T09:20:29.254Z,10.70
2017-10-04T09:22:56.838Z,17.87
2017-10-04T09:25:25.194Z,18.25
2017-10-04T09:27:52.793Z,19.12
2017-10-04T09:30:20.377Z,14.02
2017-10-04T09:32:47.958Z,12.90
2017-10-04T09:35:15.566Z,16.40
2017-10-04T09:37:43.919Z,16.17
2017-10-04T09:40:11.559Z,14.45
2017-10-04T09:42:39.141Z,11.07
2017-10-04T09:45:06.722Z,17.17
2017-10-04T09:47:34.372Z,12.10
2017-10-04T09:50:02.718Z,12.20
2017-10-04T09:52:30.300Z,17.73
2017-10-04T09:54:58.677Z,13.98
2017-10-04T09:57:27.026Z,13.60
2017-10-04T09:59:54.610Z,13.88
2017-10-04T10:02:23.018Z,11.90
2017-10-04T10:04:50.606Z,14.90
2017-10-04T10:07:18.185Z,16.75
2017-10-04T10:09:45.838Z,21.08
2017-10-04T10:12:13.426Z,11.77
2017-10-04T10:14:41.782Z,15.95
2017-10-04T10:17:09.414Z,14.30
2017-10-04T10:19:36.997Z,10.43
2017-10-04T10:22:04.579Z,8.23
2017-10-04T10:24:33.081Z,19.02
2017-10-04T10:27:00.670Z,13.25
2017-10-04T10:29:28.254Z,11.52
2017-10-04T10:31:55.860Z,9.10
2017-10-04T10:34:23.447Z,11.70
2017-10-04T10:36:51.029Z,11.60
2017-10-04T10:39:18.654Z,14.07
2017-10-04T10:41:46.241Z,12.00
2017-10-04T10:44:13.829Z,16.27
2017-10-04T10:46:42.234Z,10.98
2017-10-04T10:49:09.822Z,12.90
2017-10-04T10:51:37.421Z,11.45
2017-10-04T10:54:05.801Z,16.10
2017-10-04T10:56:34.151Z,11.43
2017-10-04T10:59:01.802Z,13.60
2017-10-04T11:01:29.394Z,16.52
2017-10-04T11:03:57.741Z,8.55
2017-10-04T11:06:26.137Z,9.75
2017-10-04T11:08:53.727Z,7.97
2017-10-04T11:11:21.313Z,10.77
2017-10-04T11:13:48.947Z,10.70
2017-10-04T11:16:16.526Z,9.98
2017-10-04T11:18:44.110Z,9.48
2017-10-04T11:21:11.737Z,11.25
2017-10-04T11:23:39.321Z,15.07
2017-10-04T11:26:06.910Z,8.10
2017-10-04T11:28:34.538Z,6.45
2017-10-04T11:31:02.121Z,7.60
2017-10-04T11:33:29.701Z,8.52
2017-10-04T11:35:58.106Z,13.40
2017-10-04T11:38:25.698Z,12.15
2017-10-04T11:40:53.290Z,11.23
2017-10-04T11:43:21.665Z,10.20
2017-10-04T11:45:49.254Z,9.82
2017-10-04T11:48:16.844Z,6.78
2017-10-04T11:50:44.453Z,14.17
2017-10-04T11:53:12.849Z,10.05
2017-10-04T11:55:40.434Z,10.93
2017-10-04T11:58:08.017Z,8.80
2017-10-04T12:00:35.676Z,6.37
2017-10-04T12:03:03.265Z,4.40
2017-10-04T12:05:31.617Z,9.27
2017-10-04T12:07:59.230Z,7.32
2017-10-04T12:10:26.822Z,10.85
2017-10-04T12:12:54.475Z,10.98
2017-10-04T12:15:22.057Z,13.13
2017-10-04T12:17:49.642Z,10.93
2017-10-04T12:20:18.014Z,12.90
2017-10-04T12:22:46.370Z,9.75
2017-10-04T12:25:13.957Z,6.43
2017-10-04T12:27:42.349Z,11.00
2017-10-04T12:30:09.929Z,12.55
2017-10-04T12:32:37.518Z,16.70
2017-10-04T12:35:05.158Z,10.30
2017-10-04T12:37:32.741Z,7.93
2017-10-04T12:40:00.333Z,7.55
2017-10-04T12:42:28.705Z,6.10
2017-10-04T12:44:57.053Z,8.20
2017-10-04T12:47:24.642Z,10.45
2017-10-04T12:49:53.041Z,15.02
2017-10-04T12:52:20.629Z,9.13
2017-10-04T12:54:48.212Z,9.75
2017-10-04T12:57:15.849Z,9.43
2017-10-04T12:59:43.438Z,5.62
2017-10-04T13:02:11.794Z,11.30
2017-10-04T13:04:39.438Z,7.18
2017-10-04T13:07:07.018Z,7.18
2017-10-04T13:09:34.604Z,11.93
2017-10-04T13:12:02.986Z,15.90
2017-10-04T13:14:31.342Z,7.82
2017-10-04T13:16:58.929Z,13.75
2017-10-04T13:19:26.632Z,9.00
2017-10-04T13:21:54.222Z,13.68
2017-10-04T13:24:21.810Z,10.35
2017-10-04T13:26:49.445Z,10.00
2017-10-04T13:29:17.802Z,7.43
2017-10-04T13:31:45.394Z,13.52
2017-10-04T13:34:13.809Z,15.98
2017-10-04T13:36:41.402Z,8.70
2017-10-04T13:39:08.989Z,11.00
2017-10-04T13:41:37.385Z,11.75
2017-10-04T13:44:04.981Z,10.13
2017-10-04T13:46:32.570Z,10.73
2017-10-04T13:49:00.183Z,14.15
2017-10-04T13:51:27.777Z,9.55
2017-10-04T13:53:55.410Z,9.40
2017-10-04T13:56:23.002Z,11.30
2017-10-04T13:58:50.594Z,12.57
2017-10-04T14:01:18.205Z,8.00
2017-10-04T14:03:45.787Z,6.47
2017-10-04T14:06:14.137Z,12.25
2017-10-04T14:08:41.754Z,12.73
2017-10-04T14:11:09.340Z,8.90
2017-10-04T14:13:36.926Z,5.95
2017-10-04T14:16:04.554Z,8.20
2017-10-04T14:18:32.138Z,9.30
2017-10-04T14:20:59.866Z,6.07
2017-10-04T14:23:27.458Z,15.05
2017-10-04T14:25:55.038Z,7.37
2017-10-04T14:28:22.670Z,11.77
2017-10-04T14:30:50.254Z,15.23
2017-10-04T14:33:17.838Z,9.77
2017-10-04T14:35:45.497Z,10.68
2017-10-04T14:38:13.841Z,11.43
2017-10-04T14:40:41.422Z,10.95
2017-10-04T14:43:09.830Z,9.27
2017-10-04T14:45:37.412Z,15.23
2017-10-04T14:48:04.998Z,9.45
2017-10-04T14:50:32.622Z,12.27
2017-10-04T14:53:00.215Z,8.45
2017-10-04T14:55:27.794Z,10.38
2017-10-04T14:57:56.195Z,8.20
2017-10-04T15:00:24.171Z,7.93
2017-10-04T15:02:51.778Z,6.15
2017-10-04T15:05:19.407Z,6.53
2017-10-04T15:07:46.989Z,14.80
2017-10-04T15:10:14.566Z,6.60
2017-10-04T15:12:42.178Z,6.75
2017-10-04T15:15:09.762Z,8.90
2017-10-04T15:17:37.392Z,10.90
2017-10-04T15:20:04.979Z,9.90
2017-10-04T15:22:32.575Z,10.02
2017-10-04T15:25:00.976Z,15.85
2017-10-04T15:27:28.554Z,9.75
2017-10-04T15:29:56.138Z,9.52
2017-10-04T15:32:23.782Z,9.95
2017-10-04T15:34:51.362Z,8.30
2017-10-04T15:37:18.949Z,7.25
2017-10-04T15:39:47.333Z,15.18
2017-10-04T15:42:14.913Z,14.93
2017-10-04T15:44:42.533Z,11.07
2017-10-04T15:47:10.890Z,12.27
2017-10-04T15:49:38.470Z,9.65
2017-10-04T15:52:06.874Z,11.38
2017-10-04T15:54:34.459Z,13.77
2017-10-04T15:57:02.046Z,10.20
2017-10-04T15:59:29.685Z,10.90
2017-10-04T16:01:57.270Z,13.27
2017-10-04T16:04:24.853Z,19.90
2017-10-04T16:06:53.250Z,13.02
2017-10-04T16:09:20.836Z,14.27
2017-10-04T16:11:48.422Z,17.08
2017-10-04T16:14:16.035Z,12.35
2017-10-04T16:16:43.621Z,10.77
2017-10-04T16:19:11.978Z,8.30
2017-10-04T16:21:39.610Z,5.90
2017-10-04T16:24:07.195Z,6.35
2017-10-04T16:26:34.786Z,12.27
2017-10-04T16:29:02.418Z,5.80
2017-10-04T16:31:29.997Z,11.02
2017-10-04T16:33:57.585Z,8.95
2017-10-04T16:36:25.960Z,13.38
2017-10-04T16:38:53.590Z,11.35
2017-10-04T16:41:21.179Z,9.43
2017-10-04T16:43:49.530Z,9.45
2017-10-04T16:46:17.161Z,15.43
2017-10-04T16:48:44.746Z,4.85
2017-10-04T16:51:12.324Z,16.37
2017-10-04T16:53:40.050Z,10.57
2017-10-04T16:56:07.630Z,11.15
2017-10-04T16:58:35.208Z,8.40
2017-10-04T17:01:02.844Z,12.73
2017-10-04T17:03:30.417Z,9.55
2017-10-04T17:05:58.010Z,10.32
2017-10-04T17:08:25.663Z,18.00
2017-10-04T17:10:54.014Z,11.80
2017-10-04T17:13:21.591Z,8.48
2017-10-04T17:15:49.977Z,16.37
2017-10-04T17:18:18.327Z,10.98
2017-10-04T17:20:45.909Z,10.88
2017-10-04T17:23:14.314Z,10.80
2017-10-04T17:25:41.903Z,7.30
2017-10-04T17:28:09.494Z,9.27
2017-10-04T17:30:37.890Z,9.55
2017-10-04T17:33:05.474Z,13.88
2017-10-04T17:35:33.050Z,7.18
2017-10-04T17:38:00.704Z,13.23
2017-10-04T17:40:28.285Z,14.65
2017-10-04T17:42:55.866Z,7.45
2017-10-04T17:45:24.286Z,11.25
2017-10-04T17:47:51.866Z,15.35
2017-10-04T17:50:19.445Z,11.95
2017-10-04T17:52:47.064Z,6.70
2017-10-04T17:55:14.646Z,9.73
2017-10-04T17:57:42.258Z,6.05
2017-10-04T18:00:09.895Z,9.30
2017-10-04T18:02:37.474Z,9.05
2017-10-04T18:05:05.813Z,9.90
2017-10-04T18:07:33.435Z,13.32
2017-10-04T18:10:01.018Z,4.22
2017-10-04T18:12:28.598Z,3.85
2017-10-04T18:14:56.225Z,8.77
2017-10-04T18:17:23.830Z,7.25
2017-10-04T18:19:52.179Z,9.30
2017-10-04T18:22:19.783Z,9.25
2017-10-04T18:24:47.369Z,5.28
2017-10-04T18:27:14.994Z,7.05
2017-10-04T18:29:43.354Z,9.40
2017-10-04T18:32:10.938Z,7.70
2017-10-04T18:34:38.570Z,9.32
2017-10-04T18:37:06.154Z,9.88
2017-10-04T18:39:34.493Z,8.02
2017-10-04T18:42:02.117Z,11.25
2017-10-04T18:44:29.700Z,10.00
2017-10-04T18:46:57.277Z,8.15
2017-10-04T18:49:24.903Z,9.32
2017-10-04T18:51:53.329Z,12.90
2017-10-04T18:54:21.674Z,9.52
2017-10-04T18:56:49.302Z,7.07
2017-10-04T18:59:16.878Z,7.95
2017-10-04T19:01:44.478Z,8.40
2017-10-04T19:04:12.822Z,3.42
2017-10-04T19:06:40.401Z,16.35
2017-10-04T19:09:08.342Z,5.75
2017-10-04T19:11:35.917Z,10.82
2017-10-04T19:14:03.502Z,9.85
2017-10-04T19:16:31.900Z,10.20
2017-10-04T19:18:59.486Z,15.57
2017-10-04T19:21:27.280Z,11.48
2017-10-04T19:23:54.898Z,12.70
2017-10-04T19:26:22.482Z,7.20
2017-10-04T19:28:50.882Z,5.82
2017-10-04T19:31:18.466Z,14.45
2017-10-04T19:33:46.814Z,11.98
2017-10-04T19:36:14.438Z,11.82
2017-10-04T19:38:42.017Z,5.95
2017-10-04T19:41:09.629Z,10.70
2017-10-04T19:43:37.286Z,15.55
2017-10-04T19:46:05.635Z,10.93
2017-10-04T19:48:33.226Z,8.88
2017-10-04T19:51:00.863Z,8.20
2017-10-04T19:53:29.236Z,11.80
2017-10-04T19:55:56.813Z,18.87
2017-10-04T19:58:25.210Z,4.85
2017-10-04T20:00:52.805Z,10.43
2017-10-04T20:03:20.389Z,11.45
2017-10-04T20:05:47.989Z,18.90
2017-10-04T20:08:15.573Z,6.72
2017-10-04T20:10:43.182Z,11.35
2017-10-04T20:13:11.534Z,17.30
2017-10-04T20:15:39.119Z,10.13
2017-10-04T20:18:07.513Z,10.25
2017-10-04T20:20:35.095Z,15.90
2017-10-04T20:23:02.674Z,10.75
2017-10-04T20:25:30.309Z,8.77
2017-10-04T20:27:57.894Z,14.70
2017-10-04T20:30:25.469Z,8.80
2017-10-04T20:32:53.093Z,16.23
2017-10-04T20:35:20.677Z,12.50
2017-10-04T20:37:48.263Z,14.02
2017-10-04T20:40:16.637Z,10.77
2017-10-04T20:42:44.981Z,13.18
2017-10-04T20:45:12.602Z,6.65
2017-10-04T20:47:40.186Z,10.15
2017-10-04T20:50:07.765Z,15.57
2017-10-04T20:52:35.382Z,6.72
2017-10-04T20:55:02.963Z,14.00
2017-10-04T20:57:30.541Z,11.02
2017-10-04T20:59:58.273Z,6.80
2017-10-04T21:02:25.853Z,9.60
2017-10-04T21:04:53.442Z,11.07
2017-10-04T21:07:21.840Z,10.25
2017-10-04T21:09:49.427Z,16.10
2017-10-04T21:12:17.015Z,13.73
2017-10-04T21:14:44.756Z,14.05
2017-10-04T21:17:12.330Z,8.60
2017-10-04T21:19:39.974Z,12.48
2017-10-04T21:22:07.608Z,10.88
2017-10-04T21:24:35.193Z,12.60
2017-10-04T21:27:02.774Z,13.00
2017-10-04T21:29:30.403Z,16.23
2017-10-04T21:31:57.989Z,10.48
2017-10-04T21:34:25.569Z,4.60
2017-10-04T21:36:53.966Z,17.58
2017-10-04T21:39:22.313Z,9.77
2017-10-04T21:41:49.898Z,8.23
2017-10-04T21:44:18.270Z,9.32
2017-10-04T21:46:46.685Z,13.75
2017-10-04T21:49:14.319Z,12.50
2017-10-04T21:51:41.905Z,7.72
2017-10-04T21:54:09.487Z,12.55
2017-10-04T21:56:37.103Z,11.68
2017-10-04T21:59:04.689Z,19.23
2017-10-04T22:01:32.265Z,11.40
2017-10-04T22:03:59.893Z,13.10
2017-10-04T22:06:27.477Z,14.63
2017-10-04T22:08:55.054Z,8.93
2017-10-04T22:11:22.682Z,11.40
2017-10-04T22:13:50.263Z,16.23
2017-10-04T22:16:17.841Z,12.35
2017-10-04T22:18:45.461Z,12.27
2017-10-04T22:21:13.038Z,8.45
2017-10-04T22:23:40.613Z,14.10
2017-10-04T22:26:08.230Z,8.75
2017-10-04T22:28:35.809Z,12.63
